sensor_id;sensor_type;location;lat;lon;timestamp;P1;durP1;ratioP1;P2;durP2;ratioP2
2211;SDS011;48849;48.758;9.158;2023-02-28T00:00:53;4.70;;;2.85;;
2211;SDS011;48849;48.758;9.158;2023-02-28T00:03:19;3.85;;;3.13;;
2211;SDS011;48849;48.758;9.158;2023-02-28T00:05:47;3.47;;;3.22;;
2211;SDS011;48849;48.758;9.158;2023-02-28T00:08:14;4.03;;;3.17;;
2211;SDS011;48849;48.758;9.158;2023-02-28T00:10:41;5.32;;;3.42;;
2211;SDS011;48849;48.758;9.158;2023-02-28T00:13:07;3.72;;;3.03;;
2211;SDS011;48849;48.758;9.158;2023-02-28T00:15:34;6.43;;;3.60;;
2211;SDS011;48849;48.758;9.158;2023-02-28T00:18:01;6.13;;;3.40;;
2211;SDS011;48849;48.758;9.158;2023-02-28T00:20:28;4.28;;;3.40;;
2211;SDS011;48849;48.758;9.158;2023-02-28T00:22:56;3.70;;;3.40;;
2211;SDS011;48849;48.758;9.158;2023-02-28T00:25:24;3.75;;;3.35;;
2211;SDS011;48849;48.758;9.158;2023-02-28T00:27:51;3.10;;;2.90;;
2211;SDS011;48849;48.758;9.158;2023-02-28T00:30:19;3.05;;;2.80;;
2211;SDS011;48849;48.758;9.158;2023-02-28T00:32:47;4.15;;;3.35;;
2211;SDS011;48849;48.758;9.158;2023-02-28T00:35:13;4.32;;;3.00;;
2211;SDS011;48849;48.758;9.158;2023-02-28T00:37:40;3.55;;;3.05;;
2211;SDS011;48849;48.758;9.158;2023-02-28T00:40:09;3.67;;;3.35;;
2211;SDS011;48849;48.758;9.158;2023-02-28T00:42:37;4.63;;;3.03;;
2211;SDS011;48849;48.758;9.158;2023-02-28T00:45:05;3.53;;;3.22;;
2211;SDS011;48849;48.758;9.158;2023-02-28T00:47:33;4.00;;;3.20;;
2211;SDS011;48849;48.758;9.158;2023-02-28T00:50:00;3.53;;;2.80;;
2211;SDS011;48849;48.758;9.158;2023-02-28T00:52:27;5.47;;;3.40;;
2211;SDS011;48849;48.758;9.158;2023-02-28T00:54:54;3.42;;;3.13;;
2211;SDS011;48849;48.758;9.158;2023-02-28T00:57:22;4.70;;;3.05;;
2211;SDS011;48849;48.758;9.158;2023-02-28T00:59:48;3.50;;;3.20;;
2211;SDS011;48849;48.758;9.158;2023-02-28T01:02:15;3.30;;;2.80;;
2211;SDS011;48849;48.758;9.158;2023-02-28T01:04:43;3.38;;;3.00;;
2211;SDS011;48849;48.758;9.158;2023-02-28T01:07:09;3.60;;;3.30;;
2211;SDS011;48849;48.758;9.158;2023-02-28T01:09:36;3.78;;;3.17;;
2211;SDS011;48849;48.758;9.158;2023-02-28T01:12:03;3.67;;;3.00;;
2211;SDS011;48849;48.758;9.158;2023-02-28T01:14:31;4.50;;;3.40;;
2211;SDS011;48849;48.758;9.158;2023-02-28T01:16:58;3.47;;;2.85;;
2211;SDS011;48849;48.758;9.158;2023-02-28T01:19:24;3.50;;;3.20;;
2211;SDS011;48849;48.758;9.158;2023-02-28T01:21:51;3.85;;;3.53;;
2211;SDS011;48849;48.758;9.158;2023-02-28T01:24:18;3.10;;;2.72;;
2211;SDS011;48849;48.758;9.158;2023-02-28T01:26:45;3.47;;;3.00;;
2211;SDS011;48849;48.758;9.158;2023-02-28T01:29:11;3.00;;;2.80;;
2211;SDS011;48849;48.758;9.158;2023-02-28T01:31:39;4.10;;;3.15;;
2211;SDS011;48849;48.758;9.158;2023-02-28T01:34:06;3.80;;;3.40;;
2211;SDS011;48849;48.758;9.158;2023-02-28T01:36:33;4.43;;;3.97;;
2211;SDS011;48849;48.758;9.158;2023-02-28T01:38:59;3.45;;;3.10;;
2211;SDS011;48849;48.758;9.158;2023-02-28T01:41:27;3.45;;;3.10;;
2211;SDS011;48849;48.758;9.158;2023-02-28T01:44:00;5.45;;;2.83;;
2211;SDS011;48849;48.758;9.158;2023-02-28T01:46:29;12.98;;;4.80;;
2211;SDS011;48849;48.758;9.158;2023-02-28T01:49:00;3.72;;;3.30;;
2211;SDS011;48849;48.758;9.158;2023-02-28T01:51:31;4.20;;;3.80;;
2211;SDS011;48849;48.758;9.158;2023-02-28T01:54:03;4.65;;;3.50;;
2211;SDS011;48849;48.758;9.158;2023-02-28T01:56:38;5.30;;;3.60;;
2211;SDS011;48849;48.758;9.158;2023-02-28T01:59:08;3.78;;;3.35;;
2211;SDS011;48849;48.758;9.158;2023-02-28T02:01:35;4.25;;;3.28;;
2211;SDS011;48849;48.758;9.158;2023-02-28T02:04:03;4.38;;;3.67;;
2211;SDS011;48849;48.758;9.158;2023-02-28T02:06:34;4.63;;;3.63;;
2211;SDS011;48849;48.758;9.158;2023-02-28T02:09:04;4.00;;;3.50;;
2211;SDS011;48849;48.758;9.158;2023-02-28T02:11:31;4.68;;;3.85;;
2211;SDS011;48849;48.758;9.158;2023-02-28T02:14:10;5.07;;;4.10;;
2211;SDS011;48849;48.758;9.158;2023-02-28T02:17:02;5.20;;;3.90;;
2211;SDS011;48849;48.758;9.158;2023-02-28T02:19:42;5.13;;;3.70;;
2211;SDS011;48849;48.758;9.158;2023-02-28T02:23:01;4.18;;;3.50;;
2211;SDS011;48849;48.758;9.158;2023-02-28T02:25:48;4.80;;;3.58;;
2211;SDS011;48849;48.758;9.158;2023-02-28T02:28:35;4.88;;;3.88;;
2211;SDS011;48849;48.758;9.158;2023-02-28T02:31:21;4.15;;;3.58;;
2211;SDS011;48849;48.758;9.158;2023-02-28T02:36:53;4.65;;;4.22;;
2211;SDS011;48849;48.758;9.158;2023-02-28T02:39:29;3.97;;;3.35;;
2211;SDS011;48849;48.758;9.158;2023-02-28T02:42:02;6.38;;;4.28;;
2211;SDS011;48849;48.758;9.158;2023-02-28T02:44:39;6.47;;;4.63;;
2211;SDS011;48849;48.758;9.158;2023-02-28T02:47:10;6.18;;;3.83;;
2211;SDS011;48849;48.758;9.158;2023-02-28T02:49:41;4.35;;;3.85;;
2211;SDS011;48849;48.758;9.158;2023-02-28T02:52:12;4.28;;;3.75;;
2211;SDS011;48849;48.758;9.158;2023-02-28T02:54:44;6.65;;;4.32;;
2211;SDS011;48849;48.758;9.158;2023-02-28T02:57:15;5.65;;;4.50;;
2211;SDS011;48849;48.758;9.158;2023-02-28T02:59:47;4.15;;;3.80;;
2211;SDS011;48849;48.758;9.158;2023-02-28T03:02:16;4.93;;;4.38;;
2211;SDS011;48849;48.758;9.158;2023-02-28T03:04:45;4.18;;;3.88;;
2211;SDS011;48849;48.758;9.158;2023-02-28T03:07:15;5.63;;;4.57;;
2211;SDS011;48849;48.758;9.158;2023-02-28T03:09:49;4.60;;;4.05;;
2211;SDS011;48849;48.758;9.158;2023-02-28T03:12:16;4.10;;;3.80;;
2211;SDS011;48849;48.758;9.158;2023-02-28T03:14:47;4.22;;;3.92;;
2211;SDS011;48849;48.758;9.158;2023-02-28T03:17:30;4.65;;;4.20;;
2211;SDS011;48849;48.758;9.158;2023-02-28T03:20:23;5.90;;;4.32;;
2211;SDS011;48849;48.758;9.158;2023-02-28T03:23:02;5.22;;;4.30;;
2211;SDS011;48849;48.758;9.158;2023-02-28T03:25:37;5.68;;;4.30;;
2211;SDS011;48849;48.758;9.158;2023-02-28T03:28:14;6.32;;;4.68;;
2211;SDS011;48849;48.758;9.158;2023-02-28T03:30:47;5.03;;;4.57;;
2211;SDS011;48849;48.758;9.158;2023-02-28T03:33:19;4.50;;;4.03;;
2211;SDS011;48849;48.758;9.158;2023-02-28T03:35:52;4.80;;;4.40;;
2211;SDS011;48849;48.758;9.158;2023-02-28T03:38:27;5.05;;;4.65;;
2211;SDS011;48849;48.758;9.158;2023-02-28T03:40:58;5.70;;;4.20;;
2211;SDS011;48849;48.758;9.158;2023-02-28T03:43:33;5.22;;;4.70;;
2211;SDS011;48849;48.758;9.158;2023-02-28T03:46:04;4.75;;;4.30;;
2211;SDS011;48849;48.758;9.158;2023-02-28T03:48:35;5.25;;;4.35;;
2211;SDS011;48849;48.758;9.158;2023-02-28T03:51:08;5.10;;;4.45;;
2211;SDS011;48849;48.758;9.158;2023-02-28T03:53:42;8.10;;;5.00;;
2211;SDS011;48849;48.758;9.158;2023-02-28T03:56:12;8.13;;;4.72;;
2211;SDS011;48849;48.758;9.158;2023-02-28T03:58:44;4.65;;;4.25;;
2211;SDS011;48849;48.758;9.158;2023-02-28T04:01:19;4.88;;;4.45;;
2211;SDS011;48849;48.758;9.158;2023-02-28T04:03:49;4.60;;;4.20;;
2211;SDS011;48849;48.758;9.158;2023-02-28T04:06:19;4.55;;;4.15;;
2211;SDS011;48849;48.758;9.158;2023-02-28T04:08:47;5.28;;;4.75;;
2211;SDS011;48849;48.758;9.158;2023-02-28T04:11:18;5.10;;;4.60;;
2211;SDS011;48849;48.758;9.158;2023-02-28T04:13:48;7.10;;;4.85;;
2211;SDS011;48849;48.758;9.158;2023-02-28T04:16:14;5.57;;;4.65;;
2211;SDS011;48849;48.758;9.158;2023-02-28T04:18:41;5.90;;;4.80;;
2211;SDS011;48849;48.758;9.158;2023-02-28T04:21:09;9.07;;;4.93;;
2211;SDS011;48849;48.758;9.158;2023-02-28T04:23:37;5.88;;;4.60;;
2211;SDS011;48849;48.758;9.158;2023-02-28T04:26:04;4.95;;;4.55;;
2211;SDS011;48849;48.758;9.158;2023-02-28T04:28:31;5.00;;;4.60;;
2211;SDS011;48849;48.758;9.158;2023-02-28T04:30:59;5.70;;;4.95;;
2211;SDS011;48849;48.758;9.158;2023-02-28T04:33:27;4.93;;;4.43;;
2211;SDS011;48849;48.758;9.158;2023-02-28T04:36:00;5.45;;;4.95;;
2211;SDS011;48849;48.758;9.158;2023-02-28T04:38:27;5.70;;;4.90;;
2211;SDS011;48849;48.758;9.158;2023-02-28T04:40:57;6.30;;;4.35;;
2211;SDS011;48849;48.758;9.158;2023-02-28T04:43:25;5.10;;;4.60;;
2211;SDS011;48849;48.758;9.158;2023-02-28T04:45:52;5.28;;;4.78;;
2211;SDS011;48849;48.758;9.158;2023-02-28T04:48:19;5.63;;;5.13;;
2211;SDS011;48849;48.758;9.158;2023-02-28T04:50:46;6.18;;;4.55;;
2211;SDS011;48849;48.758;9.158;2023-02-28T04:53:12;6.15;;;5.53;;
2211;SDS011;48849;48.758;9.158;2023-02-28T04:55:39;5.50;;;5.00;;
2211;SDS011;48849;48.758;9.158;2023-02-28T04:58:07;6.13;;;4.65;;
2211;SDS011;48849;48.758;9.158;2023-02-28T05:00:34;5.45;;;4.90;;
2211;SDS011;48849;48.758;9.158;2023-02-28T05:03:00;5.18;;;4.72;;
2211;SDS011;48849;48.758;9.158;2023-02-28T05:05:27;5.30;;;4.80;;
2211;SDS011;48849;48.758;9.158;2023-02-28T05:07:54;5.82;;;5.28;;
2211;SDS011;48849;48.758;9.158;2023-02-28T05:10:21;5.45;;;4.95;;
2211;SDS011;48849;48.758;9.158;2023-02-28T05:12:48;7.30;;;4.90;;
2211;SDS011;48849;48.758;9.158;2023-02-28T05:15:16;5.35;;;4.95;;
2211;SDS011;48849;48.758;9.158;2023-02-28T05:17:43;5.78;;;4.88;;
2211;SDS011;48849;48.758;9.158;2023-02-28T05:20:10;5.70;;;5.10;;
2211;SDS011;48849;48.758;9.158;2023-02-28T05:22:38;5.40;;;4.90;;
2211;SDS011;48849;48.758;9.158;2023-02-28T05:25:05;5.38;;;4.82;;
2211;SDS011;48849;48.758;9.158;2023-02-28T05:27:33;8.30;;;7.10;;
2211;SDS011;48849;48.758;9.158;2023-02-28T05:29:59;7.07;;;5.53;;
2211;SDS011;48849;48.758;9.158;2023-02-28T05:32:29;6.95;;;5.80;;
2211;SDS011;48849;48.758;9.158;2023-02-28T05:34:56;7.25;;;5.18;;
2211;SDS011;48849;48.758;9.158;2023-02-28T05:37:23;7.75;;;6.95;;
2211;SDS011;48849;48.758;9.158;2023-02-28T05:39:49;6.20;;;5.60;;
2211;SDS011;48849;48.758;9.158;2023-02-28T05:42:16;6.18;;;5.57;;
2211;SDS011;48849;48.758;9.158;2023-02-28T05:44:43;5.70;;;5.20;;
2211;SDS011;48849;48.758;9.158;2023-02-28T05:47:09;7.20;;;6.15;;
2211;SDS011;48849;48.758;9.158;2023-02-28T05:49:39;6.38;;;5.78;;
2211;SDS011;48849;48.758;9.158;2023-02-28T05:52:05;8.50;;;5.72;;
2211;SDS011;48849;48.758;9.158;2023-02-28T05:54:32;8.63;;;5.40;;
2211;SDS011;48849;48.758;9.158;2023-02-28T05:56:59;7.53;;;5.63;;
2211;SDS011;48849;48.758;9.158;2023-02-28T05:59:25;9.50;;;7.28;;
2211;SDS011;48849;48.758;9.158;2023-02-28T06:01:52;6.20;;;5.60;;
2211;SDS011;48849;48.758;9.158;2023-02-28T06:04:22;6.45;;;5.75;;
2211;SDS011;48849;48.758;9.158;2023-02-28T06:06:50;7.70;;;5.88;;
2211;SDS011;48849;48.758;9.158;2023-02-28T06:09:17;6.40;;;5.57;;
2211;SDS011;48849;48.758;9.158;2023-02-28T06:11:45;7.95;;;5.90;;
2211;SDS011;48849;48.758;9.158;2023-02-28T06:14:13;7.75;;;5.85;;
2211;SDS011;48849;48.758;9.158;2023-02-28T06:16:41;6.70;;;5.97;;
2211;SDS011;48849;48.758;9.158;2023-02-28T06:19:08;6.20;;;5.57;;
2211;SDS011;48849;48.758;9.158;2023-02-28T06:21:36;7.18;;;6.03;;
2211;SDS011;48849;48.758;9.158;2023-02-28T06:24:04;7.53;;;5.95;;
2211;SDS011;48849;48.758;9.158;2023-02-28T06:26:31;7.35;;;6.55;;
2211;SDS011;48849;48.758;9.158;2023-02-28T06:28:58;7.03;;;6.35;;
2211;SDS011;48849;48.758;9.158;2023-02-28T06:31:25;6.18;;;5.57;;
2211;SDS011;48849;48.758;9.158;2023-02-28T06:33:54;6.28;;;5.68;;
2211;SDS011;48849;48.758;9.158;2023-02-28T06:36:21;8.43;;;6.22;;
2211;SDS011;48849;48.758;9.158;2023-02-28T06:38:48;7.60;;;6.25;;
2211;SDS011;48849;48.758;9.158;2023-02-28T06:41:20;8.18;;;6.65;;
2211;SDS011;48849;48.758;9.158;2023-02-28T06:43:48;6.55;;;5.93;;
2211;SDS011;48849;48.758;9.158;2023-02-28T06:46:15;7.05;;;6.35;;
2211;SDS011;48849;48.758;9.158;2023-02-28T06:48:42;7.78;;;6.97;;
2211;SDS011;48849;48.758;9.158;2023-02-28T06:51:11;8.32;;;6.50;;
2211;SDS011;48849;48.758;9.158;2023-02-28T06:53:39;7.22;;;6.05;;
2211;SDS011;48849;48.758;9.158;2023-02-28T06:56:07;7.20;;;6.50;;
2211;SDS011;48849;48.758;9.158;2023-02-28T06:58:36;6.70;;;6.00;;
2211;SDS011;48849;48.758;9.158;2023-02-28T07:01:04;7.10;;;5.82;;
2211;SDS011;48849;48.758;9.158;2023-02-28T07:03:32;8.43;;;7.00;;
2211;SDS011;48849;48.758;9.158;2023-02-28T07:05:58;8.38;;;6.55;;
2211;SDS011;48849;48.758;9.158;2023-02-28T07:08:26;7.25;;;6.50;;
2211;SDS011;48849;48.758;9.158;2023-02-28T07:10:52;7.22;;;6.53;;
2211;SDS011;48849;48.758;9.158;2023-02-28T07:13:19;7.50;;;6.63;;
2211;SDS011;48849;48.758;9.158;2023-02-28T07:15:53;8.05;;;6.97;;
2211;SDS011;48849;48.758;9.158;2023-02-28T07:18:20;8.20;;;6.80;;
2211;SDS011;48849;48.758;9.158;2023-02-28T07:20:47;10.43;;;6.90;;
2211;SDS011;48849;48.758;9.158;2023-02-28T07:23:14;8.00;;;7.20;;
2211;SDS011;48849;48.758;9.158;2023-02-28T07:25:41;9.40;;;7.85;;
2211;SDS011;48849;48.758;9.158;2023-02-28T07:28:08;8.90;;;7.38;;
2211;SDS011;48849;48.758;9.158;2023-02-28T07:30:35;9.05;;;6.63;;
2211;SDS011;48849;48.758;9.158;2023-02-28T07:33:03;7.90;;;7.10;;
2211;SDS011;48849;48.758;9.158;2023-02-28T07:35:30;8.63;;;7.25;;
2211;SDS011;48849;48.758;9.158;2023-02-28T07:37:57;8.80;;;7.90;;
2211;SDS011;48849;48.758;9.158;2023-02-28T07:40:25;9.25;;;7.05;;
2211;SDS011;48849;48.758;9.158;2023-02-28T07:42:52;9.50;;;7.57;;
2211;SDS011;48849;48.758;9.158;2023-02-28T07:45:19;7.88;;;7.07;;
2211;SDS011;48849;48.758;9.158;2023-02-28T07:47:47;9.38;;;7.60;;
2211;SDS011;48849;48.758;9.158;2023-02-28T07:50:15;9.02;;;7.65;;
2211;SDS011;48849;48.758;9.158;2023-02-28T07:52:42;8.82;;;7.85;;
2211;SDS011;48849;48.758;9.158;2023-02-28T07:55:09;8.38;;;7.57;;
2211;SDS011;48849;48.758;9.158;2023-02-28T07:57:36;9.18;;;7.85;;
2211;SDS011;48849;48.758;9.158;2023-02-28T08:00:03;8.27;;;7.07;;
2211;SDS011;48849;48.758;9.158;2023-02-28T08:02:32;12.40;;;8.02;;
2211;SDS011;48849;48.758;9.158;2023-02-28T08:04:59;8.70;;;7.75;;
2211;SDS011;48849;48.758;9.158;2023-02-28T08:07:27;9.35;;;8.35;;
2211;SDS011;48849;48.758;9.158;2023-02-28T08:09:54;10.43;;;7.90;;
2211;SDS011;48849;48.758;9.158;2023-02-28T08:12:21;8.85;;;7.03;;
2211;SDS011;48849;48.758;9.158;2023-02-28T08:14:47;7.75;;;6.95;;
2211;SDS011;48849;48.758;9.158;2023-02-28T08:17:14;9.27;;;7.72;;
2211;SDS011;48849;48.758;9.158;2023-02-28T08:19:41;8.80;;;7.85;;
2211;SDS011;48849;48.758;9.158;2023-02-28T08:22:07;8.35;;;7.45;;
2211;SDS011;48849;48.758;9.158;2023-02-28T08:24:35;9.65;;;7.90;;
2211;SDS011;48849;48.758;9.158;2023-02-28T08:27:02;8.85;;;8.05;;
2211;SDS011;48849;48.758;9.158;2023-02-28T08:29:29;8.65;;;7.78;;
2211;SDS011;48849;48.758;9.158;2023-02-28T08:31:55;10.77;;;8.85;;
2211;SDS011;48849;48.758;9.158;2023-02-28T08:34:23;9.52;;;8.27;;
2211;SDS011;48849;48.758;9.158;2023-02-28T08:36:50;10.18;;;9.00;;
2211;SDS011;48849;48.758;9.158;2023-02-28T08:39:18;9.52;;;8.55;;
2211;SDS011;48849;48.758;9.158;2023-02-28T08:41:46;9.23;;;8.32;;
2211;SDS011;48849;48.758;9.158;2023-02-28T08:44:13;8.68;;;7.78;;
2211;SDS011;48849;48.758;9.158;2023-02-28T08:46:39;9.52;;;8.15;;
2211;SDS011;48849;48.758;9.158;2023-02-28T08:49:06;9.57;;;8.13;;
2211;SDS011;48849;48.758;9.158;2023-02-28T08:51:34;10.35;;;8.30;;
2211;SDS011;48849;48.758;9.158;2023-02-28T08:54:01;11.75;;;8.43;;
2211;SDS011;48849;48.758;9.158;2023-02-28T08:56:28;10.32;;;8.80;;
2211;SDS011;48849;48.758;9.158;2023-02-28T08:58:56;9.07;;;8.18;;
2211;SDS011;48849;48.758;9.158;2023-02-28T09:01:24;9.20;;;8.23;;
2211;SDS011;48849;48.758;9.158;2023-02-28T09:03:53;9.80;;;8.43;;
2211;SDS011;48849;48.758;9.158;2023-02-28T09:06:22;10.63;;;9.52;;
2211;SDS011;48849;48.758;9.158;2023-02-28T09:08:50;11.40;;;8.50;;
2211;SDS011;48849;48.758;9.158;2023-02-28T09:11:17;10.32;;;9.13;;
2211;SDS011;48849;48.758;9.158;2023-02-28T09:13:45;9.68;;;8.70;;
2211;SDS011;48849;48.758;9.158;2023-02-28T09:16:14;10.00;;;8.88;;
2211;SDS011;48849;48.758;9.158;2023-02-28T09:18:42;9.65;;;8.73;;
2211;SDS011;48849;48.758;9.158;2023-02-28T09:21:10;10.80;;;8.75;;
2211;SDS011;48849;48.758;9.158;2023-02-28T09:23:40;9.73;;;8.73;;
2211;SDS011;48849;48.758;9.158;2023-02-28T09:26:07;10.30;;;8.93;;
2211;SDS011;48849;48.758;9.158;2023-02-28T09:28:39;10.45;;;8.45;;
2211;SDS011;48849;48.758;9.158;2023-02-28T09:31:05;10.15;;;9.15;;
2211;SDS011;48849;48.758;9.158;2023-02-28T09:33:33;13.10;;;9.70;;
2211;SDS011;48849;48.758;9.158;2023-02-28T09:36:00;10.82;;;8.95;;
2211;SDS011;48849;48.758;9.158;2023-02-28T09:38:28;11.40;;;9.20;;
2211;SDS011;48849;48.758;9.158;2023-02-28T09:40:56;10.70;;;9.15;;
2211;SDS011;48849;48.758;9.158;2023-02-28T09:43:26;9.80;;;8.60;;
2211;SDS011;48849;48.758;9.158;2023-02-28T09:45:56;11.98;;;8.88;;
2211;SDS011;48849;48.758;9.158;2023-02-28T09:48:29;9.93;;;8.90;;
2211;SDS011;48849;48.758;9.158;2023-02-28T09:51:02;10.30;;;9.20;;
2211;SDS011;48849;48.758;9.158;2023-02-28T09:53:32;11.57;;;9.15;;
2211;SDS011;48849;48.758;9.158;2023-02-28T09:56:01;11.15;;;9.35;;
2211;SDS011;48849;48.758;9.158;2023-02-28T09:58:34;10.82;;;9.70;;
2211;SDS011;48849;48.758;9.158;2023-02-28T10:01:07;10.07;;;9.05;;
2211;SDS011;48849;48.758;9.158;2023-02-28T10:03:40;9.73;;;8.75;;
2211;SDS011;48849;48.758;9.158;2023-02-28T10:06:12;9.88;;;8.73;;
2211;SDS011;48849;48.758;9.158;2023-02-28T10:08:43;10.95;;;9.85;;
2211;SDS011;48849;48.758;9.158;2023-02-28T10:11:16;10.02;;;8.98;;
2211;SDS011;48849;48.758;9.158;2023-02-28T10:13:48;9.70;;;8.23;;
2211;SDS011;48849;48.758;9.158;2023-02-28T10:16:21;10.10;;;9.10;;
2211;SDS011;48849;48.758;9.158;2023-02-28T10:18:58;10.60;;;9.05;;
2211;SDS011;48849;48.758;9.158;2023-02-28T10:21:29;11.30;;;8.90;;
2211;SDS011;48849;48.758;9.158;2023-02-28T10:24:05;9.95;;;8.73;;
2211;SDS011;48849;48.758;9.158;2023-02-28T10:26:45;12.50;;;9.40;;
2211;SDS011;48849;48.758;9.158;2023-02-28T10:29:13;11.90;;;8.88;;
2211;SDS011;48849;48.758;9.158;2023-02-28T10:31:40;12.32;;;9.10;;
2211;SDS011;48849;48.758;9.158;2023-02-28T10:34:08;9.50;;;8.60;;
2211;SDS011;48849;48.758;9.158;2023-02-28T10:36:38;9.63;;;8.63;;
2211;SDS011;48849;48.758;9.158;2023-02-28T10:42:19;13.55;;;10.70;;
2211;SDS011;48849;48.758;9.158;2023-02-28T10:44:55;11.32;;;9.95;;
2211;SDS011;48849;48.758;9.158;2023-02-28T10:47:33;10.68;;;9.35;;
2211;SDS011;48849;48.758;9.158;2023-02-28T10:50:03;10.68;;;8.70;;
2211;SDS011;48849;48.758;9.158;2023-02-28T10:52:33;9.43;;;8.43;;
2211;SDS011;48849;48.758;9.158;2023-02-28T10:55:13;9.68;;;8.68;;
2211;SDS011;48849;48.758;9.158;2023-02-28T10:57:45;10.55;;;8.70;;
2211;SDS011;48849;48.758;9.158;2023-02-28T11:00:14;14.18;;;9.52;;
2211;SDS011;48849;48.758;9.158;2023-02-28T11:02:43;10.50;;;9.13;;
2211;SDS011;48849;48.758;9.158;2023-02-28T11:05:26;11.75;;;10.00;;
2211;SDS011;48849;48.758;9.158;2023-02-28T11:07:55;10.40;;;9.20;;
2211;SDS011;48849;48.758;9.158;2023-02-28T11:10:26;11.40;;;9.90;;
2211;SDS011;48849;48.758;9.158;2023-02-28T11:12:57;16.52;;;9.95;;
2211;SDS011;48849;48.758;9.158;2023-02-28T11:15:25;10.80;;;9.70;;
2211;SDS011;48849;48.758;9.158;2023-02-28T11:17:54;10.60;;;9.50;;
2211;SDS011;48849;48.758;9.158;2023-02-28T11:20:23;11.60;;;10.05;;
2211;SDS011;48849;48.758;9.158;2023-02-28T11:22:53;12.07;;;10.32;;
2211;SDS011;48849;48.758;9.158;2023-02-28T11:25:23;11.32;;;9.60;;
2211;SDS011;48849;48.758;9.158;2023-02-28T11:27:53;10.43;;;9.40;;
2211;SDS011;48849;48.758;9.158;2023-02-28T11:30:29;11.07;;;8.95;;
2211;SDS011;48849;48.758;9.158;2023-02-28T11:33:00;13.27;;;10.60;;
2211;SDS011;48849;48.758;9.158;2023-02-28T11:35:45;12.52;;;10.02;;
2211;SDS011;48849;48.758;9.158;2023-02-28T11:38:15;12.15;;;10.85;;
2211;SDS011;48849;48.758;9.158;2023-02-28T11:40:43;11.82;;;9.85;;
2211;SDS011;48849;48.758;9.158;2023-02-28T11:43:20;10.45;;;9.40;;
2211;SDS011;48849;48.758;9.158;2023-02-28T11:48:49;12.80;;;9.75;;
2211;SDS011;48849;48.758;9.158;2023-02-28T11:51:28;11.57;;;10.18;;
2211;SDS011;48849;48.758;9.158;2023-02-28T11:54:15;10.90;;;9.60;;
2211;SDS011;48849;48.758;9.158;2023-02-28T11:56:54;12.20;;;10.00;;
2211;SDS011;48849;48.758;9.158;2023-02-28T11:59:33;11.50;;;10.30;;
2211;SDS011;48849;48.758;9.158;2023-02-28T12:02:25;12.38;;;11.18;;
2211;SDS011;48849;48.758;9.158;2023-02-28T12:05:00;11.05;;;9.75;;
2211;SDS011;48849;48.758;9.158;2023-02-28T12:07:39;11.35;;;10.20;;
2211;SDS011;48849;48.758;9.158;2023-02-28T12:10:16;10.20;;;9.30;;
2211;SDS011;48849;48.758;9.158;2023-02-28T12:12:49;9.95;;;8.85;;
2211;SDS011;48849;48.758;9.158;2023-02-28T12:15:38;10.82;;;9.73;;
2211;SDS011;48849;48.758;9.158;2023-02-28T12:18:34;11.13;;;9.23;;
2211;SDS011;48849;48.758;9.158;2023-02-28T12:21:14;11.73;;;10.48;;
2211;SDS011;48849;48.758;9.158;2023-02-28T12:23:54;10.95;;;9.93;;
2211;SDS011;48849;48.758;9.158;2023-02-28T12:26:30;11.15;;;9.90;;
2211;SDS011;48849;48.758;9.158;2023-02-28T12:29:04;10.68;;;9.57;;
2211;SDS011;48849;48.758;9.158;2023-02-28T12:31:40;11.40;;;9.80;;
2211;SDS011;48849;48.758;9.158;2023-02-28T12:34:12;11.35;;;9.60;;
2211;SDS011;48849;48.758;9.158;2023-02-28T12:36:41;10.68;;;9.10;;
2211;SDS011;48849;48.758;9.158;2023-02-28T12:39:12;10.82;;;9.77;;
2211;SDS011;48849;48.758;9.158;2023-02-28T12:41:44;9.98;;;8.85;;
2211;SDS011;48849;48.758;9.158;2023-02-28T12:44:17;11.18;;;9.95;;
2211;SDS011;48849;48.758;9.158;2023-02-28T12:46:48;30.67;;;10.32;;
2211;SDS011;48849;48.758;9.158;2023-02-28T12:49:17;19.33;;;9.73;;
2211;SDS011;48849;48.758;9.158;2023-02-28T12:51:47;15.25;;;9.00;;
2211;SDS011;48849;48.758;9.158;2023-02-28T12:54:19;11.82;;;9.73;;
2211;SDS011;48849;48.758;9.158;2023-02-28T12:56:51;12.68;;;10.02;;
2211;SDS011;48849;48.758;9.158;2023-02-28T12:59:25;10.40;;;9.30;;
2211;SDS011;48849;48.758;9.158;2023-02-28T13:01:57;10.77;;;8.95;;
2211;SDS011;48849;48.758;9.158;2023-02-28T13:10:41;10.40;;;9.20;;
2211;SDS011;48849;48.758;9.158;2023-02-28T13:13:13;10.98;;;9.55;;
2211;SDS011;48849;48.758;9.158;2023-02-28T13:15:56;10.45;;;9.35;;
2211;SDS011;48849;48.758;9.158;2023-02-28T13:18:32;10.82;;;9.50;;
2211;SDS011;48849;48.758;9.158;2023-02-28T13:21:02;12.05;;;8.80;;
2211;SDS011;48849;48.758;9.158;2023-02-28T13:23:38;10.98;;;9.85;;
2211;SDS011;48849;48.758;9.158;2023-02-28T13:26:24;10.65;;;9.57;;
2211;SDS011;48849;48.758;9.158;2023-02-28T13:29:31;10.02;;;9.05;;
2211;SDS011;48849;48.758;9.158;2023-02-28T13:35:13;10.95;;;9.75;;
2211;SDS011;48849;48.758;9.158;2023-02-28T13:44:06;10.65;;;9.55;;
2211;SDS011;48849;48.758;9.158;2023-02-28T13:46:36;11.70;;;9.63;;
2211;SDS011;48849;48.758;9.158;2023-02-28T13:49:25;10.10;;;9.10;;
2211;SDS011;48849;48.758;9.158;2023-02-28T13:51:55;10.95;;;9.43;;
2211;SDS011;48849;48.758;9.158;2023-02-28T13:54:40;11.77;;;10.40;;
2211;SDS011;48849;48.758;9.158;2023-02-28T13:57:21;13.23;;;10.20;;
2211;SDS011;48849;48.758;9.158;2023-02-28T13:59:58;9.88;;;8.88;;
2211;SDS011;48849;48.758;9.158;2023-02-28T14:02:45;12.65;;;11.15;;
2211;SDS011;48849;48.758;9.158;2023-02-28T14:05:23;13.18;;;11.00;;
2211;SDS011;48849;48.758;9.158;2023-02-28T14:07:52;10.25;;;9.25;;
2211;SDS011;48849;48.758;9.158;2023-02-28T14:10:22;11.95;;;10.70;;
2211;SDS011;48849;48.758;9.158;2023-02-28T14:12:56;10.32;;;9.32;;
2211;SDS011;48849;48.758;9.158;2023-02-28T14:15:54;10.45;;;9.45;;
2211;SDS011;48849;48.758;9.158;2023-02-28T14:18:25;11.18;;;9.88;;
2211;SDS011;48849;48.758;9.158;2023-02-28T14:20:55;11.25;;;10.05;;
2211;SDS011;48849;48.758;9.158;2023-02-28T14:23:31;15.50;;;12.90;;
2211;SDS011;48849;48.758;9.158;2023-02-28T14:26:06;16.58;;;13.45;;
2211;SDS011;48849;48.758;9.158;2023-02-28T14:28:47;12.50;;;11.20;;
2211;SDS011;48849;48.758;9.158;2023-02-28T14:31:23;33.85;;;23.73;;
2211;SDS011;48849;48.758;9.158;2023-02-28T14:34:02;23.85;;;17.80;;
2211;SDS011;48849;48.758;9.158;2023-02-28T14:36:40;24.65;;;17.70;;
2211;SDS011;48849;48.758;9.158;2023-02-28T14:39:10;16.80;;;14.35;;
2211;SDS011;48849;48.758;9.158;2023-02-28T14:41:40;14.57;;;10.48;;
2211;SDS011;48849;48.758;9.158;2023-02-28T14:44:16;11.70;;;10.50;;
2211;SDS011;48849;48.758;9.158;2023-02-28T14:46:45;10.82;;;9.70;;
2211;SDS011;48849;48.758;9.158;2023-02-28T14:49:24;12.70;;;9.70;;
2211;SDS011;48849;48.758;9.158;2023-02-28T14:52:01;10.52;;;8.95;;
2211;SDS011;48849;48.758;9.158;2023-02-28T14:54:31;10.00;;;9.00;;
2211;SDS011;48849;48.758;9.158;2023-02-28T14:56:58;17.95;;;15.23;;
2211;SDS011;48849;48.758;9.158;2023-02-28T14:59:27;23.35;;;15.75;;
2211;SDS011;48849;48.758;9.158;2023-02-28T15:04:44;22.17;;;16.70;;
2211;SDS011;48849;48.758;9.158;2023-02-28T15:07:18;23.27;;;16.50;;
2211;SDS011;48849;48.758;9.158;2023-02-28T15:10:05;13.43;;;11.00;;
2211;SDS011;48849;48.758;9.158;2023-02-28T15:12:34;11.85;;;9.60;;
2211;SDS011;48849;48.758;9.158;2023-02-28T15:15:01;9.75;;;8.75;;
2211;SDS011;48849;48.758;9.158;2023-02-28T15:17:28;11.23;;;10.00;;
2211;SDS011;48849;48.758;9.158;2023-02-28T15:19:57;11.85;;;10.40;;
2211;SDS011;48849;48.758;9.158;2023-02-28T15:22:26;10.30;;;9.13;;
2211;SDS011;48849;48.758;9.158;2023-02-28T15:24:57;10.70;;;9.45;;
2211;SDS011;48849;48.758;9.158;2023-02-28T15:27:25;13.40;;;11.80;;
2211;SDS011;48849;48.758;9.158;2023-02-28T15:29:57;15.80;;;12.80;;
2211;SDS011;48849;48.758;9.158;2023-02-28T15:32:27;17.50;;;14.27;;
2211;SDS011;48849;48.758;9.158;2023-02-28T15:34:56;13.27;;;10.60;;
2211;SDS011;48849;48.758;9.158;2023-02-28T15:37:26;15.27;;;12.30;;
2211;SDS011;48849;48.758;9.158;2023-02-28T15:39:56;13.95;;;12.55;;
2211;SDS011;48849;48.758;9.158;2023-02-28T15:42:27;19.05;;;14.77;;
2211;SDS011;48849;48.758;9.158;2023-02-28T15:44:56;11.68;;;10.48;;